• Join FlightAware (Why Join?)
  • Login
  • US Flag 
08:00PM EDT


 

Airport Tracker/Info


-or-


 

Live Flight TrackerFlight Track Log ✈ EJA695 ✈ 19-Jul-2013 ✈ KBLM - KHTO

Flight Track Log - Related Links

Times and Time Zones

All times are in EDT time to prevent confusion due to time zone crossing. See the EJA695 flight status page for this flight to view local times or setup timezone preferences in your user account.

Time Position Orientation Groundspeed Altitude Reporting Facility
EDT Latitude Longitude Course Direction KTS MPH feet Rate Location/Type
12:24PM 40.1414 -74.1867 140° Southeast 240 276 3,800  Level New York Center
12:25PM 40.0867 -74.1269 140° Southeast 239 275 4,900 1,260 Climbing New York Center
12:26PM 40.0542 -74.0278 113° Southeast 259 298 6,400 1,860 Climbing New York Center
12:27PM 40.0294 -73.9372 110° East 283 326 8,700 1,260 Climbing New York Center
12:28PM 39.9947 -73.8381 115° Southeast 295 339 9,000 60 Climbing New York Center
12:29PM 39.9644 -73.7175 108° East 302 348 8,900 -60 Descending New York Center
12:30PM 39.9878 -73.6128 74° East 288 331 8,900  Level New York Center
12:33PM 40.1375 -73.4008 47° Northeast 303 349 8,900  Level Boston Center
12:34PM 40.2089 -73.3014 47° Northeast 309 356 8,900  Level Boston Center
12:35PM 40.2700 -73.2206 45° Northeast 309 356 8,900  Level Boston Center
12:36PM 40.3311 -73.1342 47° Northeast 314 361 8,900  Level Boston Center
12:37PM 40.3897 -73.0531 46° Northeast 314 361 8,900 -300 Level Boston Center
12:38PM 40.4833 -72.9167 48° Northeast 317 365 8,200 -660 Descending New York TRACON
12:39PM 40.5500 -72.8333 44° Northeast 313 360 7,300 -780 Descending New York TRACON
12:40PM 40.6000 -72.7667 45° Northeast 297 342 6,800 -780 Descending New York TRACON
12:41PM 40.6500 -72.6833 52° Northeast 283 326 5,800 -900 Descending New York TRACON
12:42PM 40.7167 -72.6167 37° Northeast 280 322 5,000 -840 Descending New York TRACON
12:43PM 40.7667 -72.5333 52° Northeast 279 321 4,200 -900 Descending New York TRACON
12:44PM 40.8000 -72.4500 62° Northeast 279 321 3,200 -600 Descending New York TRACON
12:45PM 40.8167 -72.3500 78° East 272 313 3,000 -300 Descending New York TRACON
12:46PM 40.8667 -72.2667 52° Northeast 268 308 2,600 -600 Descending New York TRACON
12:47PM 40.9000 -72.2000 57° Northeast 250 288 1,900 -660 Descending New York TRACON
12:48PM 40.9667 -72.2000 360° North 232 267 1,300 -600 Descending New York TRACON